sensor_id;sensor_type;location;lat;lon;timestamp;P1;durP1;ratioP1;P2;durP2;ratioP2
58581;SDS011;44361;51.476;5.700;2023-05-10T00:00:50;11.07;;;5.30;;
58581;SDS011;44361;51.476;5.700;2023-05-10T00:03:16;8.70;;;5.13;;
58581;SDS011;44361;51.476;5.700;2023-05-10T00:05:41;12.60;;;5.80;;
58581;SDS011;44361;51.476;5.700;2023-05-10T00:08:07;11.82;;;6.25;;
58581;SDS011;44361;51.476;5.700;2023-05-10T00:10:33;16.85;;;6.97;;
58581;SDS011;44361;51.476;5.700;2023-05-10T00:12:58;11.13;;;6.30;;
58581;SDS011;44361;51.476;5.700;2023-05-10T00:15:24;12.25;;;6.47;;
58581;SDS011;44361;51.476;5.700;2023-05-10T00:17:49;16.35;;;6.85;;
58581;SDS011;44361;51.476;5.700;2023-05-10T00:20:15;15.13;;;7.53;;
58581;SDS011;44361;51.476;5.700;2023-05-10T00:22:40;16.80;;;7.90;;
58581;SDS011;44361;51.476;5.700;2023-05-10T00:25:06;15.63;;;8.15;;
58581;SDS011;44361;51.476;5.700;2023-05-10T00:27:32;18.83;;;7.82;;
58581;SDS011;44361;51.476;5.700;2023-05-10T00:29:58;17.23;;;8.00;;
58581;SDS011;44361;51.476;5.700;2023-05-10T00:32:23;21.63;;;8.15;;
58581;SDS011;44361;51.476;5.700;2023-05-10T00:34:49;15.60;;;8.35;;
58581;SDS011;44361;51.476;5.700;2023-05-10T00:37:14;17.88;;;7.38;;
58581;SDS011;44361;51.476;5.700;2023-05-10T00:39:40;18.35;;;8.52;;
58581;SDS011;44361;51.476;5.700;2023-05-10T00:42:05;16.13;;;8.10;;
58581;SDS011;44361;51.476;5.700;2023-05-10T00:44:31;20.58;;;8.50;;
58581;SDS011;44361;51.476;5.700;2023-05-10T00:46:56;21.02;;;9.32;;
58581;SDS011;44361;51.476;5.700;2023-05-10T00:49:23;18.50;;;8.32;;
58581;SDS011;44361;51.476;5.700;2023-05-10T00:51:48;21.92;;;9.52;;
58581;SDS011;44361;51.476;5.700;2023-05-10T00:54:15;18.83;;;9.23;;
58581;SDS011;44361;51.476;5.700;2023-05-10T00:56:40;23.05;;;10.13;;
58581;SDS011;44361;51.476;5.700;2023-05-10T00:59:07;23.98;;;10.18;;
58581;SDS011;44361;51.476;5.700;2023-05-10T01:01:34;23.55;;;10.55;;
58581;SDS011;44361;51.476;5.700;2023-05-10T01:04:01;23.33;;;10.23;;
58581;SDS011;44361;51.476;5.700;2023-05-10T01:06:26;23.50;;;11.43;;
58581;SDS011;44361;51.476;5.700;2023-05-10T01:08:52;32.05;;;13.35;;
58581;SDS011;44361;51.476;5.700;2023-05-10T01:11:18;32.70;;;14.07;;
58581;SDS011;44361;51.476;5.700;2023-05-10T01:13:53;41.03;;;14.85;;
58581;SDS011;44361;51.476;5.700;2023-05-10T01:16:22;38.58;;;14.90;;
58581;SDS011;44361;51.476;5.700;2023-05-10T01:18:49;37.80;;;15.50;;
58581;SDS011;44361;51.476;5.700;2023-05-10T01:27:25;36.08;;;15.02;;
58581;SDS011;44361;51.476;5.700;2023-05-10T01:30:07;38.90;;;15.90;;
58581;SDS011;44361;51.476;5.700;2023-05-10T01:35:35;47.92;;;16.60;;
58581;SDS011;44361;51.476;5.700;2023-05-10T01:38:13;47.15;;;17.17;;
58581;SDS011;44361;51.476;5.700;2023-05-10T01:40:52;47.10;;;17.55;;
58581;SDS011;44361;51.476;5.700;2023-05-10T01:43:42;65.60;;;19.95;;
58581;SDS011;44361;51.476;5.700;2023-05-10T01:46:16;65.68;;;19.80;;
58581;SDS011;44361;51.476;5.700;2023-05-10T01:48:47;80.35;;;22.35;;
58581;SDS011;44361;51.476;5.700;2023-05-10T01:51:16;88.55;;;23.35;;
58581;SDS011;44361;51.476;5.700;2023-05-10T01:53:48;82.22;;;23.48;;
58581;SDS011;44361;51.476;5.700;2023-05-10T01:56:16;78.85;;;22.33;;
58581;SDS011;44361;51.476;5.700;2023-05-10T01:58:48;81.78;;;23.00;;
58581;SDS011;44361;51.476;5.700;2023-05-10T02:01:16;79.60;;;22.90;;
58581;SDS011;44361;51.476;5.700;2023-05-10T02:03:45;81.85;;;22.35;;
58581;SDS011;44361;51.476;5.700;2023-05-10T02:06:12;77.93;;;22.58;;
58581;SDS011;44361;51.476;5.700;2023-05-10T02:08:39;80.20;;;24.67;;
58581;SDS011;44361;51.476;5.700;2023-05-10T02:11:06;80.82;;;23.58;;
58581;SDS011;44361;51.476;5.700;2023-05-10T02:13:32;75.22;;;23.15;;
58581;SDS011;44361;51.476;5.700;2023-05-10T02:16:00;75.93;;;22.85;;
58581;SDS011;44361;51.476;5.700;2023-05-10T02:18:28;69.78;;;21.25;;
58581;SDS011;44361;51.476;5.700;2023-05-10T02:20:55;75.63;;;22.95;;
58581;SDS011;44361;51.476;5.700;2023-05-10T02:23:21;83.72;;;24.85;;
58581;SDS011;44361;51.476;5.700;2023-05-10T02:25:48;78.82;;;23.65;;
58581;SDS011;44361;51.476;5.700;2023-05-10T02:28:16;80.75;;;23.80;;
58581;SDS011;44361;51.476;5.700;2023-05-10T02:30:43;77.72;;;24.40;;
58581;SDS011;44361;51.476;5.700;2023-05-10T02:33:09;81.63;;;25.25;;
58581;SDS011;44361;51.476;5.700;2023-05-10T02:35:35;78.30;;;25.08;;
58581;SDS011;44361;51.476;5.700;2023-05-10T02:38:03;77.13;;;25.27;;
58581;SDS011;44361;51.476;5.700;2023-05-10T02:40:30;79.78;;;26.17;;
58581;SDS011;44361;51.476;5.700;2023-05-10T02:42:56;82.05;;;26.38;;
58581;SDS011;44361;51.476;5.700;2023-05-10T02:45:24;84.68;;;26.70;;
58581;SDS011;44361;51.476;5.700;2023-05-10T02:47:53;86.57;;;26.70;;
58581;SDS011;44361;51.476;5.700;2023-05-10T02:50:19;86.45;;;25.85;;
58581;SDS011;44361;51.476;5.700;2023-05-10T02:52:49;79.32;;;26.90;;
58581;SDS011;44361;51.476;5.700;2023-05-10T02:55:16;83.32;;;27.50;;
58581;SDS011;44361;51.476;5.700;2023-05-10T02:57:57;74.57;;;25.15;;
58581;SDS011;44361;51.476;5.700;2023-05-10T03:00:25;83.88;;;28.13;;
58581;SDS011;44361;51.476;5.700;2023-05-10T03:02:50;80.53;;;27.15;;
58581;SDS011;44361;51.476;5.700;2023-05-10T03:05:16;76.65;;;26.20;;
58581;SDS011;44361;51.476;5.700;2023-05-10T03:07:42;79.00;;;26.70;;
58581;SDS011;44361;51.476;5.700;2023-05-10T03:10:08;83.57;;;26.95;;
58581;SDS011;44361;51.476;5.700;2023-05-10T03:15:22;78.30;;;27.07;;
58581;SDS011;44361;51.476;5.700;2023-05-10T03:17:55;82.20;;;28.58;;
58581;SDS011;44361;51.476;5.700;2023-05-10T03:20:31;91.93;;;29.13;;
58581;SDS011;44361;51.476;5.700;2023-05-10T03:25:43;90.93;;;29.20;;
58581;SDS011;44361;51.476;5.700;2023-05-10T03:28:12;93.47;;;28.60;;
58581;SDS011;44361;51.476;5.700;2023-05-10T03:30:39;91.65;;;28.42;;
58581;SDS011;44361;51.476;5.700;2023-05-10T03:33:06;78.47;;;27.17;;
58581;SDS011;44361;51.476;5.700;2023-05-10T03:35:32;87.55;;;28.65;;
58581;SDS011;44361;51.476;5.700;2023-05-10T03:37:58;79.55;;;27.15;;
58581;SDS011;44361;51.476;5.700;2023-05-10T03:40:24;77.05;;;28.23;;
58581;SDS011;44361;51.476;5.700;2023-05-10T03:42:50;75.43;;;27.40;;
58581;SDS011;44361;51.476;5.700;2023-05-10T03:45:16;78.82;;;28.88;;
58581;SDS011;44361;51.476;5.700;2023-05-10T03:47:41;80.13;;;28.48;;
58581;SDS011;44361;51.476;5.700;2023-05-10T03:50:07;81.22;;;28.55;;
58581;SDS011;44361;51.476;5.700;2023-05-10T03:52:33;79.85;;;27.55;;
58581;SDS011;44361;51.476;5.700;2023-05-10T03:54:58;82.38;;;28.33;;
58581;SDS011;44361;51.476;5.700;2023-05-10T03:57:24;69.80;;;26.38;;
58581;SDS011;44361;51.476;5.700;2023-05-10T03:59:49;71.50;;;27.35;;
58581;SDS011;44361;51.476;5.700;2023-05-10T04:02:15;75.63;;;28.35;;
58581;SDS011;44361;51.476;5.700;2023-05-10T04:04:40;70.72;;;25.13;;
58581;SDS011;44361;51.476;5.700;2023-05-10T04:07:06;75.30;;;25.20;;
58581;SDS011;44361;51.476;5.700;2023-05-10T04:09:32;70.90;;;26.83;;
58581;SDS011;44361;51.476;5.700;2023-05-10T04:11:58;77.43;;;26.98;;
58581;SDS011;44361;51.476;5.700;2023-05-10T04:14:24;62.80;;;25.05;;
58581;SDS011;44361;51.476;5.700;2023-05-10T04:16:50;69.60;;;26.15;;
58581;SDS011;44361;51.476;5.700;2023-05-10T04:19:15;63.80;;;25.75;;
58581;SDS011;44361;51.476;5.700;2023-05-10T04:21:41;71.03;;;26.05;;
58581;SDS011;44361;51.476;5.700;2023-05-10T04:24:07;63.15;;;23.90;;
58581;SDS011;44361;51.476;5.700;2023-05-10T04:26:32;73.85;;;25.17;;
58581;SDS011;44361;51.476;5.700;2023-05-10T04:28:58;69.07;;;23.92;;
58581;SDS011;44361;51.476;5.700;2023-05-10T04:31:23;67.10;;;24.65;;
58581;SDS011;44361;51.476;5.700;2023-05-10T04:33:49;62.28;;;22.15;;
58581;SDS011;44361;51.476;5.700;2023-05-10T04:36:15;66.45;;;24.33;;
58581;SDS011;44361;51.476;5.700;2023-05-10T04:38:40;60.60;;;24.38;;
58581;SDS011;44361;51.476;5.700;2023-05-10T04:41:06;67.03;;;25.75;;
58581;SDS011;44361;51.476;5.700;2023-05-10T04:43:32;71.70;;;25.65;;
58581;SDS011;44361;51.476;5.700;2023-05-10T04:45:58;68.80;;;25.50;;
58581;SDS011;44361;51.476;5.700;2023-05-10T04:48:24;74.18;;;25.15;;
58581;SDS011;44361;51.476;5.700;2023-05-10T04:50:50;79.43;;;25.80;;
58581;SDS011;44361;51.476;5.700;2023-05-10T04:53:15;77.75;;;26.92;;
58581;SDS011;44361;51.476;5.700;2023-05-10T04:55:41;84.55;;;26.55;;
58581;SDS011;44361;51.476;5.700;2023-05-10T04:58:07;82.00;;;26.83;;
58581;SDS011;44361;51.476;5.700;2023-05-10T05:00:33;88.15;;;28.73;;
58581;SDS011;44361;51.476;5.700;2023-05-10T05:02:58;93.50;;;29.73;;
58581;SDS011;44361;51.476;5.700;2023-05-10T05:05:24;96.05;;;30.60;;
58581;SDS011;44361;51.476;5.700;2023-05-10T05:07:50;111.90;;;32.70;;
58581;SDS011;44361;51.476;5.700;2023-05-10T05:10:15;117.78;;;33.97;;
58581;SDS011;44361;51.476;5.700;2023-05-10T05:12:41;112.25;;;31.90;;
58581;SDS011;44361;51.476;5.700;2023-05-10T05:15:07;113.57;;;32.70;;
58581;SDS011;44361;51.476;5.700;2023-05-10T05:17:34;115.07;;;34.03;;
58581;SDS011;44361;51.476;5.700;2023-05-10T05:19:59;106.70;;;34.47;;
58581;SDS011;44361;51.476;5.700;2023-05-10T05:22:25;104.03;;;32.17;;
58581;SDS011;44361;51.476;5.700;2023-05-10T05:24:54;88.57;;;29.83;;
58581;SDS011;44361;51.476;5.700;2023-05-10T05:27:20;86.78;;;27.88;;
58581;SDS011;44361;51.476;5.700;2023-05-10T05:29:52;76.45;;;25.10;;
58581;SDS011;44361;51.476;5.700;2023-05-10T05:32:19;78.88;;;25.40;;
58581;SDS011;44361;51.476;5.700;2023-05-10T05:34:44;69.22;;;26.73;;
58581;SDS011;44361;51.476;5.700;2023-05-10T05:37:14;64.15;;;24.13;;
58581;SDS011;44361;51.476;5.700;2023-05-10T05:39:40;61.58;;;24.55;;
58581;SDS011;44361;51.476;5.700;2023-05-10T05:42:07;64.20;;;24.92;;
58581;SDS011;44361;51.476;5.700;2023-05-10T05:44:33;64.82;;;25.50;;
58581;SDS011;44361;51.476;5.700;2023-05-10T05:46:58;62.03;;;24.52;;
58581;SDS011;44361;51.476;5.700;2023-05-10T05:49:24;55.33;;;24.27;;
58581;SDS011;44361;51.476;5.700;2023-05-10T05:51:49;61.53;;;24.23;;
58581;SDS011;44361;51.476;5.700;2023-05-10T05:54:15;60.13;;;23.85;;
58581;SDS011;44361;51.476;5.700;2023-05-10T05:56:41;55.65;;;21.85;;
58581;SDS011;44361;51.476;5.700;2023-05-10T05:59:06;54.33;;;22.05;;
58581;SDS011;44361;51.476;5.700;2023-05-10T06:01:32;48.40;;;21.05;;
58581;SDS011;44361;51.476;5.700;2023-05-10T06:03:58;55.40;;;22.48;;
58581;SDS011;44361;51.476;5.700;2023-05-10T06:06:23;47.15;;;20.83;;
58581;SDS011;44361;51.476;5.700;2023-05-10T06:08:49;52.05;;;21.90;;
58581;SDS011;44361;51.476;5.700;2023-05-10T06:11:14;49.65;;;21.58;;
58581;SDS011;44361;51.476;5.700;2023-05-10T06:13:40;46.22;;;20.63;;
58581;SDS011;44361;51.476;5.700;2023-05-10T06:16:07;46.55;;;21.08;;
58581;SDS011;44361;51.476;5.700;2023-05-10T06:18:32;41.88;;;19.40;;
58581;SDS011;44361;51.476;5.700;2023-05-10T06:20:58;47.17;;;19.58;;
58581;SDS011;44361;51.476;5.700;2023-05-10T06:23:23;42.35;;;18.58;;
58581;SDS011;44361;51.476;5.700;2023-05-10T06:25:50;46.00;;;18.67;;
58581;SDS011;44361;51.476;5.700;2023-05-10T06:28:16;44.03;;;19.40;;
58581;SDS011;44361;51.476;5.700;2023-05-10T06:30:41;35.20;;;17.67;;
58581;SDS011;44361;51.476;5.700;2023-05-10T06:33:07;35.15;;;17.25;;
58581;SDS011;44361;51.476;5.700;2023-05-10T06:35:33;38.90;;;17.88;;
58581;SDS011;44361;51.476;5.700;2023-05-10T06:37:58;35.22;;;17.00;;
58581;SDS011;44361;51.476;5.700;2023-05-10T06:40:24;36.53;;;17.13;;
58581;SDS011;44361;51.476;5.700;2023-05-10T06:42:49;33.75;;;17.15;;
58581;SDS011;44361;51.476;5.700;2023-05-10T06:45:15;34.70;;;16.70;;
58581;SDS011;44361;51.476;5.700;2023-05-10T06:47:41;30.75;;;16.23;;
58581;SDS011;44361;51.476;5.700;2023-05-10T06:50:09;37.42;;;16.80;;
58581;SDS011;44361;51.476;5.700;2023-05-10T06:52:38;31.67;;;16.08;;
58581;SDS011;44361;51.476;5.700;2023-05-10T06:55:04;34.13;;;15.73;;
58581;SDS011;44361;51.476;5.700;2023-05-10T06:57:30;32.67;;;15.13;;
58581;SDS011;44361;51.476;5.700;2023-05-10T06:59:57;29.65;;;15.50;;
58581;SDS011;44361;51.476;5.700;2023-05-10T07:02:25;33.15;;;16.92;;
58581;SDS011;44361;51.476;5.700;2023-05-10T07:04:51;30.77;;;15.40;;
58581;SDS011;44361;51.476;5.700;2023-05-10T07:07:17;31.38;;;16.05;;
58581;SDS011;44361;51.476;5.700;2023-05-10T07:09:43;30.48;;;16.17;;
58581;SDS011;44361;51.476;5.700;2023-05-10T07:12:09;36.63;;;15.32;;
58581;SDS011;44361;51.476;5.700;2023-05-10T07:14:35;31.27;;;16.05;;
58581;SDS011;44361;51.476;5.700;2023-05-10T07:17:00;39.20;;;16.40;;
58581;SDS011;44361;51.476;5.700;2023-05-10T07:19:26;31.92;;;16.77;;
58581;SDS011;44361;51.476;5.700;2023-05-10T07:21:52;30.92;;;17.17;;
58581;SDS011;44361;51.476;5.700;2023-05-10T07:24:17;36.72;;;17.23;;
58581;SDS011;44361;51.476;5.700;2023-05-10T07:26:43;34.45;;;17.48;;
58581;SDS011;44361;51.476;5.700;2023-05-10T07:29:08;35.00;;;16.85;;
58581;SDS011;44361;51.476;5.700;2023-05-10T07:31:34;34.00;;;17.25;;
58581;SDS011;44361;51.476;5.700;2023-05-10T07:34:00;29.80;;;16.25;;
58581;SDS011;44361;51.476;5.700;2023-05-10T07:36:26;37.95;;;18.45;;
58581;SDS011;44361;51.476;5.700;2023-05-10T07:38:51;33.28;;;16.25;;
58581;SDS011;44361;51.476;5.700;2023-05-10T07:41:17;30.40;;;16.73;;
58581;SDS011;44361;51.476;5.700;2023-05-10T07:43:42;34.60;;;18.45;;
58581;SDS011;44361;51.476;5.700;2023-05-10T07:46:08;31.05;;;17.88;;
58581;SDS011;44361;51.476;5.700;2023-05-10T07:48:35;33.92;;;17.83;;
58581;SDS011;44361;51.476;5.700;2023-05-10T07:51:01;34.90;;;17.58;;
58581;SDS011;44361;51.476;5.700;2023-05-10T07:53:27;34.20;;;17.88;;
58581;SDS011;44361;51.476;5.700;2023-05-10T07:55:54;35.83;;;16.58;;
58581;SDS011;44361;51.476;5.700;2023-05-10T07:58:22;32.10;;;16.85;;
58581;SDS011;44361;51.476;5.700;2023-05-10T08:00:48;29.27;;;16.67;;
58581;SDS011;44361;51.476;5.700;2023-05-10T08:03:14;34.53;;;17.05;;
58581;SDS011;44361;51.476;5.700;2023-05-10T08:05:39;37.67;;;18.05;;
58581;SDS011;44361;51.476;5.700;2023-05-10T08:08:05;35.00;;;16.63;;
58581;SDS011;44361;51.476;5.700;2023-05-10T08:10:31;32.33;;;16.05;;
58581;SDS011;44361;51.476;5.700;2023-05-10T08:12:57;30.73;;;15.80;;
58581;SDS011;44361;51.476;5.700;2023-05-10T08:15:23;31.48;;;16.38;;
58581;SDS011;44361;51.476;5.700;2023-05-10T08:17:49;35.35;;;17.17;;
58581;SDS011;44361;51.476;5.700;2023-05-10T08:20:15;31.92;;;16.00;;
58581;SDS011;44361;51.476;5.700;2023-05-10T08:22:43;26.55;;;15.20;;
58581;SDS011;44361;51.476;5.700;2023-05-10T08:25:12;29.90;;;15.35;;
58581;SDS011;44361;51.476;5.700;2023-05-10T08:27:37;26.48;;;14.38;;
58581;SDS011;44361;51.476;5.700;2023-05-10T08:30:03;26.20;;;14.85;;
58581;SDS011;44361;51.476;5.700;2023-05-10T08:32:29;26.40;;;13.32;;
58581;SDS011;44361;51.476;5.700;2023-05-10T08:34:55;23.73;;;12.48;;
58581;SDS011;44361;51.476;5.700;2023-05-10T08:37:22;20.65;;;11.45;;
58581;SDS011;44361;51.476;5.700;2023-05-10T08:39:48;20.15;;;10.02;;
58581;SDS011;44361;51.476;5.700;2023-05-10T08:42:14;30.75;;;10.70;;
58581;SDS011;44361;51.476;5.700;2023-05-10T08:44:44;18.92;;;10.15;;
58581;SDS011;44361;51.476;5.700;2023-05-10T08:47:13;17.30;;;9.55;;
58581;SDS011;44361;51.476;5.700;2023-05-10T08:49:41;15.55;;;9.48;;
58581;SDS011;44361;51.476;5.700;2023-05-10T08:52:08;15.18;;;9.15;;
58581;SDS011;44361;51.476;5.700;2023-05-10T08:54:36;14.38;;;8.05;;
58581;SDS011;44361;51.476;5.700;2023-05-10T08:57:02;10.80;;;7.47;;
58581;SDS011;44361;51.476;5.700;2023-05-10T08:59:28;14.38;;;7.25;;
58581;SDS011;44361;51.476;5.700;2023-05-10T09:01:53;9.00;;;6.20;;
58581;SDS011;44361;51.476;5.700;2023-05-10T09:04:22;11.10;;;6.60;;
58581;SDS011;44361;51.476;5.700;2023-05-10T09:06:48;12.13;;;6.03;;
58581;SDS011;44361;51.476;5.700;2023-05-10T09:09:13;11.25;;;5.32;;
58581;SDS011;44361;51.476;5.700;2023-05-10T09:11:40;9.32;;;4.90;;
58581;SDS011;44361;51.476;5.700;2023-05-10T09:14:07;9.55;;;5.50;;
58581;SDS011;44361;51.476;5.700;2023-05-10T09:16:34;7.07;;;4.35;;
58581;SDS011;44361;51.476;5.700;2023-05-10T09:18:59;7.57;;;5.00;;
58581;SDS011;44361;51.476;5.700;2023-05-10T09:21:25;9.10;;;5.10;;
58581;SDS011;44361;51.476;5.700;2023-05-10T09:23:51;9.05;;;4.40;;
58581;SDS011;44361;51.476;5.700;2023-05-10T09:26:21;7.75;;;4.40;;
58581;SDS011;44361;51.476;5.700;2023-05-10T09:28:55;10.15;;;5.25;;
58581;SDS011;44361;51.476;5.700;2023-05-10T09:31:22;8.83;;;4.90;;
58581;SDS011;44361;51.476;5.700;2023-05-10T09:33:48;9.90;;;5.50;;
58581;SDS011;44361;51.476;5.700;2023-05-10T09:36:15;8.70;;;5.00;;
58581;SDS011;44361;51.476;5.700;2023-05-10T09:38:47;8.98;;;4.97;;
58581;SDS011;44361;51.476;5.700;2023-05-10T09:41:17;6.53;;;4.40;;
58581;SDS011;44361;51.476;5.700;2023-05-10T09:43:49;8.68;;;5.68;;
58581;SDS011;44361;51.476;5.700;2023-05-10T09:46:19;8.45;;;5.07;;
58581;SDS011;44361;51.476;5.700;2023-05-10T09:48:46;11.88;;;6.57;;
58581;SDS011;44361;51.476;5.700;2023-05-10T09:51:19;7.32;;;4.78;;
58581;SDS011;44361;51.476;5.700;2023-05-10T09:53:48;7.35;;;4.43;;
58581;SDS011;44361;51.476;5.700;2023-05-10T09:56:32;6.18;;;4.43;;
58581;SDS011;44361;51.476;5.700;2023-05-10T09:59:02;5.28;;;3.90;;
58581;SDS011;44361;51.476;5.700;2023-05-10T10:01:28;7.20;;;4.00;;
58581;SDS011;44361;51.476;5.700;2023-05-10T10:03:55;6.25;;;3.17;;
58581;SDS011;44361;51.476;5.700;2023-05-10T10:06:22;4.18;;;2.60;;
58581;SDS011;44361;51.476;5.700;2023-05-10T10:08:48;5.03;;;3.10;;
58581;SDS011;44361;51.476;5.700;2023-05-10T10:11:14;6.78;;;3.15;;
58581;SDS011;44361;51.476;5.700;2023-05-10T10:13:40;4.50;;;3.03;;
58581;SDS011;44361;51.476;5.700;2023-05-10T10:16:06;6.18;;;3.28;;
58581;SDS011;44361;51.476;5.700;2023-05-10T10:18:33;8.48;;;3.75;;
58581;SDS011;44361;51.476;5.700;2023-05-10T10:20:58;6.53;;;3.85;;
58581;SDS011;44361;51.476;5.700;2023-05-10T10:23:24;9.20;;;4.50;;
58581;SDS011;44361;51.476;5.700;2023-05-10T10:25:50;10.07;;;5.47;;
58581;SDS011;44361;51.476;5.700;2023-05-10T10:28:29;8.38;;;5.45;;
58581;SDS011;44361;51.476;5.700;2023-05-10T10:34:30;9.38;;;5.55;;
58581;SDS011;44361;51.476;5.700;2023-05-10T10:36:56;10.85;;;6.35;;
58581;SDS011;44361;51.476;5.700;2023-05-10T10:39:23;11.48;;;6.68;;
58581;SDS011;44361;51.476;5.700;2023-05-10T10:41:53;11.07;;;6.18;;
58581;SDS011;44361;51.476;5.700;2023-05-10T10:49:51;10.95;;;5.43;;
58581;SDS011;44361;51.476;5.700;2023-05-10T10:52:39;10.23;;;6.05;;
58581;SDS011;44361;51.476;5.700;2023-05-10T10:57:53;11.25;;;5.88;;
58581;SDS011;44361;51.476;5.700;2023-05-10T11:00:26;7.72;;;5.38;;
58581;SDS011;44361;51.476;5.700;2023-05-10T11:10:49;9.55;;;5.10;;
58581;SDS011;44361;51.476;5.700;2023-05-10T11:13:17;8.52;;;4.88;;
58581;SDS011;44361;51.476;5.700;2023-05-10T11:15:53;8.30;;;4.53;;
58581;SDS011;44361;51.476;5.700;2023-05-10T11:18:19;9.52;;;4.50;;
58581;SDS011;44361;51.476;5.700;2023-05-10T11:20:52;9.32;;;4.22;;
58581;SDS011;44361;51.476;5.700;2023-05-10T11:23:29;5.80;;;4.10;;
58581;SDS011;44361;51.476;5.700;2023-05-10T11:26:12;8.45;;;4.45;;
58581;SDS011;44361;51.476;5.700;2023-05-10T11:28:41;7.75;;;4.22;;
58581;SDS011;44361;51.476;5.700;2023-05-10T11:31:08;9.45;;;4.82;;
58581;SDS011;44361;51.476;5.700;2023-05-10T11:33:43;8.65;;;6.18;;
58581;SDS011;44361;51.476;5.700;2023-05-10T11:36:16;14.15;;;7.55;;
58581;SDS011;44361;51.476;5.700;2023-05-10T11:38:43;17.33;;;9.37;;
58581;SDS011;44361;51.476;5.700;2023-05-10T11:41:09;14.50;;;9.18;;
58581;SDS011;44361;51.476;5.700;2023-05-10T11:43:36;16.70;;;9.60;;
58581;SDS011;44361;51.476;5.700;2023-05-10T11:46:04;16.77;;;8.98;;
58581;SDS011;44361;51.476;5.700;2023-05-10T11:48:31;13.13;;;8.55;;
58581;SDS011;44361;51.476;5.700;2023-05-10T11:50:56;12.90;;;8.80;;
58581;SDS011;44361;51.476;5.700;2023-05-10T11:53:22;13.40;;;9.23;;
58581;SDS011;44361;51.476;5.700;2023-05-10T11:55:50;15.50;;;9.05;;
58581;SDS011;44361;51.476;5.700;2023-05-10T11:58:17;14.10;;;8.90;;
58581;SDS011;44361;51.476;5.700;2023-05-10T12:00:43;13.35;;;8.88;;
58581;SDS011;44361;51.476;5.700;2023-05-10T12:03:10;12.30;;;8.35;;
58581;SDS011;44361;51.476;5.700;2023-05-10T12:05:36;13.77;;;8.95;;
58581;SDS011;44361;51.476;5.700;2023-05-10T12:08:14;11.80;;;7.85;;
58581;SDS011;44361;51.476;5.700;2023-05-10T12:10:41;10.18;;;7.47;;
58581;SDS011;44361;51.476;5.700;2023-05-10T12:13:13;13.32;;;8.40;;
58581;SDS011;44361;51.476;5.700;2023-05-10T12:15:40;11.02;;;7.47;;
58581;SDS011;44361;51.476;5.700;2023-05-10T12:18:10;11.80;;;7.95;;
58581;SDS011;44361;51.476;5.700;2023-05-10T12:20:37;14.95;;;9.63;;
58581;SDS011;44361;51.476;5.700;2023-05-10T12:23:03;16.00;;;10.05;;
58581;SDS011;44361;51.476;5.700;2023-05-10T12:25:35;13.52;;;9.25;;
58581;SDS011;44361;51.476;5.700;2023-05-10T12:28:03;13.52;;;9.38;;
58581;SDS011;44361;51.476;5.700;2023-05-10T12:30:31;12.50;;;8.88;;
58581;SDS011;44361;51.476;5.700;2023-05-10T12:33:02;11.43;;;7.97;;
58581;SDS011;44361;51.476;5.700;2023-05-10T12:35:45;13.27;;;8.48;;
58581;SDS011;44361;51.476;5.700;2023-05-10T12:40:56;9.70;;;6.95;;
58581;SDS011;44361;51.476;5.700;2023-05-10T12:43:22;12.93;;;7.25;;
58581;SDS011;44361;51.476;5.700;2023-05-10T12:45:48;10.23;;;6.75;;
58581;SDS011;44361;51.476;5.700;2023-05-10T12:48:14;13.65;;;7.45;;
58581;SDS011;44361;51.476;5.700;2023-05-10T12:50:40;13.35;;;7.55;;
58581;SDS011;44361;51.476;5.700;2023-05-10T12:53:05;13.57;;;7.38;;
58581;SDS011;44361;51.476;5.700;2023-05-10T12:55:31;17.25;;;8.15;;
58581;SDS011;44361;51.476;5.700;2023-05-10T12:57:57;12.30;;;8.20;;
58581;SDS011;44361;51.476;5.700;2023-05-10T13:00:22;14.63;;;8.98;;
58581;SDS011;44361;51.476;5.700;2023-05-10T13:02:48;12.10;;;7.68;;
58581;SDS011;44361;51.476;5.700;2023-05-10T13:05:13;11.93;;;7.43;;
58581;SDS011;44361;51.476;5.700;2023-05-10T13:07:39;14.27;;;8.23;;
58581;SDS011;44361;51.476;5.700;2023-05-10T13:10:05;15.65;;;9.35;;
58581;SDS011;44361;51.476;5.700;2023-05-10T13:12:31;17.60;;;10.05;;
58581;SDS011;44361;51.476;5.700;2023-05-10T13:14:57;17.70;;;10.85;;
58581;SDS011;44361;51.476;5.700;2023-05-10T13:17:25;18.60;;;11.98;;
58581;SDS011;44361;51.476;5.700;2023-05-10T13:19:50;19.83;;;11.48;;
58581;SDS011;44361;51.476;5.700;2023-05-10T13:22:16;20.58;;;12.02;;
58581;SDS011;44361;51.476;5.700;2023-05-10T13:24:42;16.98;;;10.90;;
58581;SDS011;44361;51.476;5.700;2023-05-10T13:27:07;18.55;;;11.25;;
58581;SDS011;44361;51.476;5.700;2023-05-10T13:29:33;17.33;;;10.25;;
58581;SDS011;44361;51.476;5.700;2023-05-10T13:31:59;16.48;;;10.00;;
58581;SDS011;44361;51.476;5.700;2023-05-10T13:34:25;15.43;;;8.95;;
58581;SDS011;44361;51.476;5.700;2023-05-10T13:36:50;11.65;;;7.93;;
58581;SDS011;44361;51.476;5.700;2023-05-10T13:39:16;8.73;;;6.38;;
58581;SDS011;44361;51.476;5.700;2023-05-10T13:41:42;9.25;;;6.47;;
58581;SDS011;44361;51.476;5.700;2023-05-10T13:44:07;9.00;;;6.38;;
58581;SDS011;44361;51.476;5.700;2023-05-10T13:46:33;10.38;;;6.45;;
58581;SDS011;44361;51.476;5.700;2023-05-10T13:48:58;6.93;;;5.22;;
58581;SDS011;44361;51.476;5.700;2023-05-10T13:51:24;5.88;;;4.78;;
58581;SDS011;44361;51.476;5.700;2023-05-10T13:53:49;7.95;;;4.90;;
58581;SDS011;44361;51.476;5.700;2023-05-10T13:56:15;5.53;;;4.55;;
58581;SDS011;44361;51.476;5.700;2023-05-10T13:58:41;6.22;;;4.68;;
58581;SDS011;44361;51.476;5.700;2023-05-10T14:01:06;9.02;;;6.10;;
58581;SDS011;44361;51.476;5.700;2023-05-10T14:03:32;9.23;;;6.50;;
58581;SDS011;44361;51.476;5.700;2023-05-10T14:05:58;9.07;;;6.95;;
58581;SDS011;44361;51.476;5.700;2023-05-10T14:08:23;10.68;;;8.13;;
58581;SDS011;44361;51.476;5.700;2023-05-10T14:10:49;11.80;;;8.00;;
58581;SDS011;44361;51.476;5.700;2023-05-10T14:13:15;13.07;;;8.00;;
58581;SDS011;44361;51.476;5.700;2023-05-10T14:15:41;11.18;;;7.93;;
58581;SDS011;44361;51.476;5.700;2023-05-10T14:18:06;9.88;;;7.57;;
58581;SDS011;44361;51.476;5.700;2023-05-10T14:20:32;13.02;;;8.60;;
58581;SDS011;44361;51.476;5.700;2023-05-10T14:22:58;12.98;;;8.65;;
58581;SDS011;44361;51.476;5.700;2023-05-10T14:25:25;10.13;;;7.57;;
58581;SDS011;44361;51.476;5.700;2023-05-10T14:27:50;12.77;;;8.82;;
58581;SDS011;44361;51.476;5.700;2023-05-10T14:30:22;14.18;;;9.35;;
58581;SDS011;44361;51.476;5.700;2023-05-10T14:32:52;16.45;;;9.80;;
58581;SDS011;44361;51.476;5.700;2023-05-10T14:35:19;17.50;;;10.13;;
58581;SDS011;44361;51.476;5.700;2023-05-10T14:37:45;14.88;;;9.52;;
58581;SDS011;44361;51.476;5.700;2023-05-10T14:40:10;16.98;;;10.18;;
58581;SDS011;44361;51.476;5.700;2023-05-10T14:42:37;16.25;;;10.32;;
58581;SDS011;44361;51.476;5.700;2023-05-10T14:45:03;18.13;;;9.63;;
58581;SDS011;44361;51.476;5.700;2023-05-10T14:47:29;16.45;;;10.77;;
58581;SDS011;44361;51.476;5.700;2023-05-10T14:49:55;15.73;;;10.10;;
58581;SDS011;44361;51.476;5.700;2023-05-10T14:52:20;18.35;;;10.13;;
58581;SDS011;44361;51.476;5.700;2023-05-10T14:54:46;18.20;;;10.60;;
58581;SDS011;44361;51.476;5.700;2023-05-10T14:57:11;20.75;;;10.68;;
58581;SDS011;44361;51.476;5.700;2023-05-10T14:59:37;19.95;;;11.65;;
58581;SDS011;44361;51.476;5.700;2023-05-10T15:02:03;20.17;;;11.65;;
58581;SDS011;44361;51.476;5.700;2023-05-10T15:04:29;19.38;;;11.23;;